createdAt,value
2018-05-21T00:02:14.805Z,16.30
2018-05-21T00:04:42.289Z,16.20
2018-05-21T00:07:09.751Z,16.20
2018-05-21T00:09:37.985Z,16.30
2018-05-21T00:12:05.469Z,16.20
2018-05-21T00:14:32.929Z,16.30
2018-05-21T00:17:00.393Z,16.20
2018-05-21T00:19:27.872Z,16.10
2018-05-21T00:21:55.343Z,16.20
2018-05-21T00:24:22.845Z,16.20
2018-05-21T00:26:51.198Z,16.10
2018-05-21T00:29:18.661Z,16.10
2018-05-21T00:31:46.129Z,16.00
2018-05-21T00:34:13.605Z,16.00
2018-05-21T00:36:41.841Z,16.00
2018-05-21T00:39:09.334Z,16.00
2018-05-21T00:41:37.598Z,16.00
2018-05-21T00:44:05.069Z,15.90
2018-05-21T00:46:33.321Z,15.90
2018-05-21T00:49:00.792Z,15.90
2018-05-21T00:51:29.073Z,15.70
2018-05-21T00:53:57.304Z,15.70
2018-05-21T00:56:24.766Z,15.60
2018-05-21T00:58:52.251Z,15.70
2018-05-21T01:01:19.709Z,15.60
2018-05-21T01:03:47.196Z,15.60
2018-05-21T01:06:14.664Z,15.70
2018-05-21T01:08:42.133Z,15.70
2018-05-21T01:11:09.613Z,15.80
2018-05-21T01:13:37.078Z,15.80
2018-05-21T01:16:04.622Z,15.90
2018-05-21T01:18:32.086Z,15.90
2018-05-21T01:21:00.322Z,15.90
2018-05-21T01:23:27.797Z,15.90
2018-05-21T01:25:55.266Z,15.80
2018-05-21T01:28:23.520Z,15.80
2018-05-21T01:30:50.988Z,15.80
2018-05-21T01:33:18.455Z,15.80
2018-05-21T01:35:45.933Z,15.90
2018-05-21T01:38:14.161Z,15.90
2018-05-21T01:40:41.645Z,15.90
2018-05-21T01:43:09.109Z,15.80
2018-05-21T01:45:36.578Z,15.80
2018-05-21T01:48:04.825Z,15.80
2018-05-21T01:50:32.289Z,15.70
2018-05-21T01:52:59.788Z,15.80
2018-05-21T01:55:27.253Z,15.80
2018-05-21T01:57:54.724Z,15.70
2018-05-21T02:00:22.209Z,15.60
2018-05-21T02:02:49.681Z,15.60
2018-05-21T02:05:17.940Z,15.50
2018-05-21T02:07:46.169Z,15.60
2018-05-21T02:10:13.645Z,15.60
2018-05-21T02:12:41.125Z,15.80
2018-05-21T02:15:08.594Z,15.90
2018-05-21T02:17:36.849Z,16.00
2018-05-21T02:20:05.163Z,15.90
2018-05-21T02:22:32.569Z,15.90
2018-05-21T02:25:00.049Z,15.90
2018-05-21T02:27:27.521Z,15.90
2018-05-21T02:29:55.777Z,15.80
2018-05-21T02:32:23.244Z,15.80
2018-05-21T02:34:51.473Z,15.80
2018-05-21T02:37:18.963Z,15.80
2018-05-21T02:39:46.429Z,15.80
2018-05-21T02:42:14.678Z,15.70
2018-05-21T02:44:43.654Z,15.60
2018-05-21T02:47:11.120Z,15.60
2018-05-21T02:49:38.597Z,15.60
2018-05-21T02:52:06.061Z,15.50
2018-05-21T02:54:34.313Z,15.60
2018-05-21T02:57:03.285Z,15.60
2018-05-21T02:59:30.764Z,15.60
2018-05-21T03:01:58.247Z,15.60
2018-05-21T03:04:26.477Z,15.60
2018-05-21T03:06:54.742Z,15.50
2018-05-21T03:09:22.202Z,15.50
2018-05-21T03:11:49.671Z,15.40
2018-05-21T03:14:17.150Z,15.50
2018-05-21T03:16:45.381Z,15.40
2018-05-21T03:19:12.874Z,15.40
2018-05-21T03:21:41.238Z,15.40
2018-05-21T03:24:10.209Z,15.50
2018-05-21T03:26:37.697Z,15.50
2018-05-21T03:29:05.929Z,15.60
2018-05-21T03:31:33.422Z,15.60
2018-05-21T03:34:00.895Z,15.60
2018-05-21T03:36:29.124Z,15.60
2018-05-21T03:38:56.605Z,15.60
2018-05-21T03:41:24.069Z,15.70
2018-05-21T03:43:52.333Z,15.90
2018-05-21T03:46:20.565Z,16.00
2018-05-21T03:48:48.033Z,16.00
2018-05-21T03:51:15.514Z,16.10
2018-05-21T03:53:42.987Z,16.10
2018-05-21T03:56:11.241Z,16.30
2018-05-21T03:58:50.529Z,16.30
2018-05-21T04:01:29.849Z,16.40
2018-05-21T04:03:57.422Z,16.30
2018-05-21T04:06:24.884Z,16.40
2018-05-21T04:08:52.366Z,16.40
2018-05-21T04:11:19.831Z,16.40
2018-05-21T04:13:48.101Z,16.40
2018-05-21T04:16:15.565Z,16.40
2018-05-21T04:18:44.622Z,16.40
2018-05-21T04:21:12.031Z,16.40
2018-05-21T04:23:40.260Z,16.40
2018-05-21T04:26:07.745Z,16.40
2018-05-21T04:28:35.217Z,16.40
2018-05-21T04:31:03.445Z,16.50
2018-05-21T04:33:30.925Z,16.50
2018-05-21T04:35:58.385Z,16.50
2018-05-21T04:38:25.869Z,16.60
2018-05-21T04:40:54.102Z,16.60
2018-05-21T04:43:21.569Z,16.60
2018-05-21T04:45:49.058Z,16.60
2018-05-21T04:48:17.285Z,16.50
2018-05-21T04:50:44.773Z,16.50
2018-05-21T04:53:13.063Z,16.60
2018-05-21T04:55:40.480Z,16.60
2018-05-21T04:58:07.965Z,16.60
2018-05-21T05:00:36.197Z,16.70
2018-05-21T05:03:03.687Z,16.60
2018-05-21T05:05:31.919Z,16.70
2018-05-21T05:07:59.385Z,16.70
2018-05-21T05:10:26.872Z,16.80
2018-05-21T05:12:55.107Z,16.90
2018-05-21T05:15:22.608Z,16.90
2018-05-21T05:17:50.842Z,17.20
2018-05-21T05:20:18.309Z,17.20
2018-05-21T05:22:45.789Z,17.30
2018-05-21T05:25:14.018Z,17.40
2018-05-21T05:27:41.510Z,17.40
2018-05-21T05:30:08.981Z,17.60
2018-05-21T05:32:37.214Z,18.10
2018-05-21T05:35:04.695Z,18.10
2018-05-21T05:37:32.157Z,18.40
2018-05-21T05:40:00.409Z,19.30
2018-05-21T05:42:27.877Z,19.30
2018-05-21T05:44:55.341Z,19.90
2018-05-21T05:47:23.589Z,20.50
2018-05-21T05:49:51.058Z,20.50
2018-05-21T05:52:18.553Z,20.40
2018-05-21T05:54:46.025Z,20.20
2018-05-21T05:57:13.499Z,19.80
2018-05-21T05:59:40.991Z,19.40
2018-05-21T06:02:09.228Z,18.90
2018-05-21T06:04:36.721Z,18.90
2018-05-21T06:07:04.189Z,19.00
2018-05-21T06:09:32.416Z,19.00
2018-05-21T06:11:59.916Z,18.90
2018-05-21T06:14:28.141Z,18.90
2018-05-21T06:16:55.629Z,18.90
2018-05-21T06:19:23.092Z,19.00
2018-05-21T06:21:51.607Z,19.80
2018-05-21T06:24:19.089Z,19.80
2018-05-21T06:26:46.562Z,20.70
2018-05-21T06:29:14.849Z,21.00
2018-05-21T06:31:42.317Z,21.40
2018-05-21T06:34:10.765Z,21.40
2018-05-21T06:36:38.061Z,21.40
2018-05-21T06:39:06.295Z,20.70
2018-05-21T06:41:33.772Z,20.60
2018-05-21T06:44:01.269Z,21.00
2018-05-21T06:46:28.728Z,21.50
2018-05-21T06:48:56.341Z,22.80
2018-05-21T06:51:23.829Z,24.40
2018-05-21T06:53:51.304Z,25.50
2018-05-21T06:56:18.781Z,26.20
2018-05-21T06:58:46.261Z,26.90
2018-05-21T07:01:13.732Z,26.90
2018-05-21T07:03:41.961Z,24.80
2018-05-21T07:06:09.531Z,24.80
2018-05-21T07:08:38.106Z,23.20
2018-05-21T07:11:05.574Z,23.10
2018-05-21T07:13:33.061Z,22.30
2018-05-21T07:16:01.298Z,21.50
2018-05-21T07:18:28.764Z,21.50
2018-05-21T07:20:56.253Z,21.70
2018-05-21T07:23:23.724Z,22.60
2018-05-21T07:25:51.193Z,23.70
2018-05-21T07:28:18.704Z,24.50
2018-05-21T07:30:46.941Z,24.40
2018-05-21T07:33:14.400Z,24.40
2018-05-21T07:35:41.901Z,23.90
2018-05-21T07:38:10.136Z,22.50
2018-05-21T07:40:37.606Z,22.50
2018-05-21T07:43:05.097Z,22.10
2018-05-21T07:45:32.567Z,22.10
2018-05-21T07:48:00.042Z,22.90
2018-05-21T07:50:27.549Z,23.40
2018-05-21T07:52:55.777Z,24.30
2018-05-21T07:55:23.240Z,24.30
2018-05-21T07:57:51.867Z,25.70
2018-05-21T08:00:20.104Z,27.00
2018-05-21T08:02:47.565Z,27.00
2018-05-21T08:05:15.069Z,27.70
2018-05-21T08:07:42.534Z,26.90
2018-05-21T08:10:10.005Z,27.30
2018-05-21T08:12:37.509Z,27.60
2018-05-21T08:15:05.744Z,27.90
2018-05-21T08:17:33.277Z,27.80
2018-05-21T08:20:00.769Z,27.70
2018-05-21T08:22:28.240Z,27.30
2018-05-21T08:24:55.706Z,27.30
2018-05-21T08:27:23.961Z,27.90
2018-05-21T08:29:51.433Z,27.90
2018-05-21T08:32:19.669Z,28.00
2018-05-21T08:34:47.166Z,28.00
2018-05-21T08:37:15.394Z,28.30
2018-05-21T08:39:42.867Z,28.30
2018-05-21T08:42:10.363Z,28.10
2018-05-21T08:44:38.640Z,27.20
2018-05-21T08:47:06.939Z,27.00
2018-05-21T08:49:34.428Z,27.00
2018-05-21T08:52:01.893Z,27.80
2018-05-21T08:54:29.352Z,28.10
2018-05-21T08:56:56.845Z,28.30
2018-05-21T08:59:24.315Z,28.00
2018-05-21T09:01:51.786Z,28.80
2018-05-21T09:04:19.280Z,30.00
2018-05-21T09:06:46.749Z,30.10
2018-05-21T09:09:14.981Z,29.70
2018-05-21T09:11:42.478Z,29.70
2018-05-21T09:14:11.058Z,29.30
2018-05-21T09:16:39.314Z,28.80
2018-05-21T09:19:06.801Z,28.80
2018-05-21T09:21:35.025Z,27.50
2018-05-21T09:24:02.493Z,27.50
2018-05-21T09:26:29.985Z,26.30
2018-05-21T09:28:58.218Z,24.80
2018-05-21T09:31:25.773Z,24.70
2018-05-21T09:33:53.197Z,24.70
2018-05-21T09:36:20.680Z,25.20
2018-05-21T09:38:48.149Z,26.40
2018-05-21T09:41:15.649Z,27.90
2018-05-21T09:43:43.120Z,28.00
2018-05-21T09:46:10.590Z,28.40
2018-05-21T09:48:38.110Z,28.90
2018-05-21T09:51:05.549Z,28.90
2018-05-21T09:53:33.777Z,28.80
2018-05-21T09:56:01.320Z,28.70
2018-05-21T09:58:28.789Z,28.70
2018-05-21T10:00:56.262Z,29.50
2018-05-21T10:03:23.753Z,29.00
2018-05-21T10:05:51.981Z,28.20
2018-05-21T10:08:19.449Z,28.10
2018-05-21T10:10:46.937Z,27.20
2018-05-21T10:13:15.169Z,27.00
2018-05-21T10:15:42.637Z,27.00
2018-05-21T10:18:10.130Z,27.70
2018-05-21T10:20:38.365Z,26.80
2018-05-21T10:23:05.831Z,26.80
2018-05-21T10:25:33.333Z,26.20
2018-05-21T10:28:00.809Z,26.40
2018-05-21T10:30:28.269Z,27.60
2018-05-21T10:32:55.759Z,28.30
2018-05-21T10:35:23.231Z,28.10
2018-05-21T10:37:51.461Z,28.80
2018-05-21T10:40:18.945Z,28.80
2018-05-21T10:42:46.410Z,28.50
2018-05-21T10:45:13.877Z,28.20
2018-05-21T10:47:42.140Z,28.30
2018-05-21T10:50:10.374Z,28.30
2018-05-21T10:52:37.838Z,28.20
2018-05-21T10:55:05.326Z,28.30
2018-05-21T10:57:32.804Z,28.90
2018-05-21T11:00:01.542Z,29.70
2018-05-21T11:02:29.033Z,29.60
2018-05-21T11:04:58.005Z,30.70
2018-05-21T11:07:25.470Z,30.70
2018-05-21T11:09:53.737Z,31.20
2018-05-21T11:12:21.985Z,30.60
2018-05-21T11:14:49.457Z,30.50
2018-05-21T11:17:16.940Z,30.20
2018-05-21T11:19:45.178Z,29.00
2018-05-21T11:22:12.650Z,29.00
2018-05-21T11:24:40.178Z,29.50
2018-05-21T11:27:07.621Z,31.10
2018-05-21T11:29:35.092Z,30.40
2018-05-21T11:32:02.656Z,29.00
2018-05-21T11:34:30.839Z,29.60
2018-05-21T11:36:58.308Z,29.50
2018-05-21T11:39:25.801Z,29.70
2018-05-21T11:41:53.342Z,29.10
2018-05-21T11:44:20.824Z,29.10
2018-05-21T11:46:48.313Z,29.30
2018-05-21T11:49:16.537Z,29.80
2018-05-21T11:51:44.008Z,29.80
2018-05-21T11:54:11.505Z,29.30
2018-05-21T11:56:38.973Z,30.10
2018-05-21T11:59:06.441Z,30.30
2018-05-21T12:01:34.705Z,30.80
2018-05-21T12:04:02.223Z,30.80
2018-05-21T12:06:29.689Z,29.90
2018-05-21T12:08:57.181Z,29.80
2018-05-21T12:11:25.413Z,29.40
2018-05-21T12:13:52.894Z,29.40
2018-05-21T12:16:20.385Z,29.80
2018-05-21T12:18:47.848Z,30.30
2018-05-21T12:21:15.325Z,29.60
2018-05-21T12:23:42.812Z,29.20
2018-05-21T12:26:10.285Z,29.40
2018-05-21T12:28:37.764Z,28.70
2018-05-21T12:31:05.250Z,28.20
2018-05-21T12:33:32.713Z,27.80
2018-05-21T12:36:00.208Z,28.30
2018-05-21T12:38:27.681Z,28.40
2018-05-21T12:40:55.913Z,28.10
2018-05-21T12:43:23.411Z,28.10
2018-05-21T12:45:51.642Z,28.40
2018-05-21T12:48:19.113Z,28.40
2018-05-21T12:50:46.601Z,28.30
2018-05-21T12:53:14.834Z,28.80
2018-05-21T12:55:42.305Z,28.70
2018-05-21T12:58:09.822Z,28.80
2018-05-21T13:00:37.290Z,28.60
2018-05-21T13:03:04.754Z,28.80
2018-05-21T13:05:32.240Z,28.90
2018-05-21T13:08:00.477Z,28.20
2018-05-21T13:10:27.949Z,28.20
2018-05-21T13:12:55.433Z,28.10
2018-05-21T13:15:23.716Z,28.20
2018-05-21T13:17:51.161Z,28.20
2018-05-21T13:20:19.421Z,27.60
2018-05-21T13:22:47.150Z,27.60
2018-05-21T13:25:14.613Z,27.90
2018-05-21T13:27:42.109Z,28.30
2018-05-21T13:30:10.341Z,27.60
2018-05-21T13:32:37.805Z,27.60
2018-05-21T13:35:05.289Z,27.50
2018-05-21T13:37:33.517Z,27.90
2018-05-21T13:40:00.982Z,27.90
2018-05-21T13:42:28.481Z,27.90
2018-05-21T13:44:56.721Z,28.00
2018-05-21T13:47:24.185Z,28.00
2018-05-21T13:49:51.679Z,28.00
2018-05-21T13:52:19.169Z,28.30
2018-05-21T13:54:46.621Z,28.50
2018-05-21T13:57:14.124Z,28.40
2018-05-21T13:59:42.363Z,28.40
2018-05-21T14:02:09.833Z,28.30
2018-05-21T14:04:37.347Z,27.80
2018-05-21T14:07:04.813Z,27.60
2018-05-21T14:09:32.277Z,27.60
2018-05-21T14:11:59.761Z,27.70
2018-05-21T14:14:27.229Z,27.60
2018-05-21T14:16:54.723Z,27.30
2018-05-21T14:19:22.213Z,27.30
2018-05-21T14:21:49.681Z,27.30
2018-05-21T14:24:17.138Z,27.40
2018-05-21T14:26:44.630Z,27.20
2018-05-21T14:29:12.102Z,27.00
2018-05-21T14:31:40.086Z,27.00
2018-05-21T14:34:07.569Z,27.20
2018-05-21T14:36:35.037Z,27.30
2018-05-21T14:39:02.501Z,27.50
2018-05-21T14:41:30.005Z,27.40
2018-05-21T14:43:57.478Z,27.60
2018-05-21T14:46:24.957Z,27.30
2018-05-21T14:48:52.447Z,27.40
2018-05-21T14:51:20.689Z,27.40
2018-05-21T14:53:48.161Z,27.40
2018-05-21T14:56:16.418Z,27.90
2018-05-21T14:58:43.885Z,27.90
2018-05-21T15:01:11.354Z,28.10
2018-05-21T15:03:39.617Z,27.30
2018-05-21T15:06:07.858Z,26.80
2018-05-21T15:08:35.326Z,26.80
2018-05-21T15:11:02.821Z,26.90
2018-05-21T15:13:31.057Z,26.80
2018-05-21T15:15:58.567Z,26.80
2018-05-21T15:18:26.784Z,26.90
2018-05-21T15:20:54.256Z,26.90
2018-05-21T15:23:21.721Z,26.70
2018-05-21T15:25:49.977Z,27.10
2018-05-21T15:28:17.456Z,27.10
2018-05-21T15:30:45.689Z,27.10
2018-05-21T15:33:13.181Z,27.10
2018-05-21T15:35:41.414Z,27.30
2018-05-21T15:38:08.881Z,27.20
2018-05-21T15:40:36.370Z,26.80
2018-05-21T15:43:04.610Z,26.40
2018-05-21T15:45:32.074Z,26.30
2018-05-21T15:47:59.614Z,26.30
2018-05-21T15:50:27.082Z,26.20
2018-05-21T15:52:54.553Z,26.20
2018-05-21T15:55:22.052Z,26.30
2018-05-21T15:57:49.521Z,26.30
2018-05-21T16:00:17.002Z,26.30
2018-05-21T16:02:44.490Z,26.50
2018-05-21T16:05:12.725Z,26.70
2018-05-21T16:07:40.192Z,26.70
2018-05-21T16:10:07.682Z,26.40
2018-05-21T16:12:35.918Z,26.30
2018-05-21T16:15:03.384Z,26.20
2018-05-21T16:17:30.873Z,26.10
2018-05-21T16:19:59.116Z,26.00
2018-05-21T16:22:26.607Z,26.10
2018-05-21T16:24:54.078Z,26.10
2018-05-21T16:27:21.541Z,26.10
2018-05-21T16:29:49.034Z,26.10
2018-05-21T16:32:16.501Z,26.30
2018-05-21T16:34:43.970Z,26.30
2018-05-21T16:37:12.233Z,26.40
2018-05-21T16:39:39.701Z,26.40
2018-05-21T16:42:07.929Z,26.40
2018-05-21T16:44:35.414Z,26.30
2018-05-21T16:47:02.886Z,26.40
2018-05-21T16:49:31.113Z,26.50
2018-05-21T16:51:58.605Z,26.40
2018-05-21T16:54:26.065Z,26.50
2018-05-21T16:56:54.297Z,26.40
2018-05-21T17:01:55.600Z,26.40
2018-05-21T17:04:23.861Z,26.20
2018-05-21T17:06:51.334Z,26.20
2018-05-21T17:09:19.561Z,25.90
2018-05-21T17:11:47.041Z,25.80
2018-05-21T17:14:14.514Z,25.70
2018-05-21T17:16:41.985Z,25.70
2018-05-21T17:19:10.241Z,25.60
2018-05-21T17:21:37.708Z,25.60
2018-05-21T17:24:05.939Z,25.50
2018-05-21T17:26:33.438Z,25.50
2018-05-21T17:29:01.674Z,25.50
2018-05-21T17:31:29.148Z,25.50
2018-05-21T17:33:56.641Z,25.40
2018-05-21T17:36:24.119Z,25.40
2018-05-21T17:38:51.668Z,25.40
2018-05-21T17:41:19.160Z,25.30
2018-05-21T17:43:46.637Z,25.30
2018-05-21T17:46:14.102Z,25.40
2018-05-21T17:48:42.388Z,25.20
2018-05-21T17:51:10.615Z,25.20
2018-05-21T17:53:38.809Z,25.20
2018-05-21T17:56:06.317Z,25.10
2018-05-21T17:58:33.785Z,25.10
2018-05-21T18:01:01.254Z,24.90
2018-05-21T18:03:28.769Z,24.90
2018-05-21T18:05:56.241Z,24.80
2018-05-21T18:08:23.716Z,24.80
2018-05-21T18:10:51.198Z,24.70
2018-05-21T18:13:18.665Z,24.70
2018-05-21T18:15:46.134Z,24.70
2018-05-21T18:18:14.389Z,24.50
2018-05-21T18:20:41.857Z,24.50
2018-05-21T18:23:10.102Z,24.40
2018-05-21T18:25:37.885Z,24.40
2018-05-21T18:28:05.349Z,24.40
2018-05-21T18:30:33.582Z,24.30
2018-05-21T18:33:01.077Z,24.20
2018-05-21T18:35:29.308Z,24.10
2018-05-21T18:37:56.778Z,24.10
2018-05-21T18:40:24.268Z,24.00
2018-05-21T18:42:52.502Z,24.00
2018-05-21T18:45:19.970Z,24.00
2018-05-21T18:47:47.749Z,24.00
2018-05-21T18:50:15.213Z,24.00
2018-05-21T18:52:43.447Z,23.90
2018-05-21T18:55:10.941Z,23.90
2018-05-21T18:57:39.184Z,23.80
2018-05-21T19:00:06.754Z,23.70
2018-05-21T19:02:35.789Z,23.70
2018-05-21T19:05:03.260Z,23.70
2018-05-21T19:07:30.729Z,23.70
2018-05-21T19:09:58.225Z,23.60
2018-05-21T19:12:25.697Z,23.60
2018-05-21T19:14:53.942Z,23.60
2018-05-21T19:17:21.429Z,23.60
2018-05-21T19:19:49.665Z,23.50
2018-05-21T19:22:17.139Z,23.50
2018-05-21T19:24:44.629Z,23.50
2018-05-21T19:27:12.101Z,23.50
2018-05-21T19:29:39.577Z,23.40
2018-05-21T19:32:07.078Z,23.40
2018-05-21T19:34:35.314Z,23.30
2018-05-21T19:37:02.786Z,23.30
2018-05-21T19:39:30.280Z,23.20
2018-05-21T19:41:57.757Z,23.20
2018-05-21T19:44:25.228Z,23.10
2018-05-21T19:46:52.716Z,23.00
2018-05-21T19:49:20.193Z,23.00
2018-05-21T19:51:48.429Z,23.00
2018-05-21T19:54:15.909Z,23.00
2018-05-21T19:56:44.142Z,22.90
2018-05-21T19:59:11.653Z,22.90
2018-05-21T20:01:39.881Z,22.90
2018-05-21T20:04:07.353Z,22.90
2018-05-21T20:06:34.838Z,23.00
2018-05-21T20:09:03.080Z,22.90
2018-05-21T20:11:30.637Z,22.90
2018-05-21T20:13:58.151Z,22.90
2018-05-21T20:16:25.620Z,22.90
2018-05-21T20:18:53.101Z,22.90
2018-05-21T20:21:20.573Z,22.90
2018-05-21T20:23:48.061Z,22.80
2018-05-21T20:26:15.528Z,22.80
2018-05-21T20:28:42.997Z,22.70
2018-05-21T20:31:10.477Z,22.70
2018-05-21T20:33:37.937Z,22.60
2018-05-21T20:36:06.944Z,22.60
2018-05-21T20:38:34.414Z,22.60
2018-05-21T20:41:02.649Z,22.40
2018-05-21T20:43:30.132Z,22.40
2018-05-21T20:45:57.597Z,22.30
2018-05-21T20:48:26.169Z,22.30
2018-05-21T20:50:53.637Z,22.20
2018-05-21T20:53:21.877Z,22.20
2018-05-21T20:55:49.374Z,22.20
2018-05-21T20:58:17.616Z,22.00
2018-05-21T21:00:45.108Z,21.90
2018-05-21T21:03:12.618Z,21.90
2018-05-21T21:05:40.085Z,21.90
2018-05-21T21:08:07.568Z,21.80
2018-05-21T21:10:35.886Z,21.50
2018-05-21T21:13:03.332Z,21.50
2018-05-21T21:15:30.803Z,21.50
2018-05-21T21:17:58.269Z,21.40
2018-05-21T21:20:25.757Z,21.40
2018-05-21T21:22:53.997Z,21.20
2018-05-21T21:25:21.489Z,21.20
2018-05-21T21:27:49.729Z,21.20
2018-05-21T21:30:17.193Z,21.10
2018-05-21T21:32:44.754Z,21.10
2018-05-21T21:35:12.933Z,21.20
2018-05-21T21:37:40.425Z,21.10
2018-05-21T21:40:07.896Z,21.10
2018-05-21T21:42:35.368Z,21.10
2018-05-21T21:45:02.862Z,21.10
2018-05-21T21:47:30.321Z,21.00
2018-05-21T21:49:57.808Z,21.00
2018-05-21T21:52:25.273Z,20.90
2018-05-21T21:54:52.741Z,20.90
2018-05-21T21:57:20.225Z,20.80
2018-05-21T21:59:47.697Z,20.70
2018-05-21T22:02:15.193Z,20.70
2018-05-21T22:04:42.669Z,20.70
2018-05-21T22:07:10.138Z,20.70
2018-05-21T22:09:37.621Z,20.60
2018-05-21T22:12:05.873Z,20.50
2018-05-21T22:14:33.360Z,20.40
2018-05-21T22:17:01.594Z,20.40
2018-05-21T22:19:29.066Z,20.30
2018-05-21T22:21:56.800Z,20.30
2018-05-21T22:24:24.261Z,20.20
2018-05-21T22:26:51.749Z,20.20
2018-05-21T22:29:19.358Z,20.10
2018-05-21T22:31:46.826Z,20.00
2018-05-21T22:34:14.309Z,20.00
2018-05-21T22:36:41.779Z,20.00
2018-05-21T22:39:09.270Z,19.90
2018-05-21T22:41:36.737Z,19.90
2018-05-21T22:44:04.204Z,19.90
2018-05-21T22:46:31.684Z,19.80
2018-05-21T22:48:59.152Z,19.70
2018-05-21T22:51:26.637Z,19.60
2018-05-21T22:53:54.864Z,19.60
2018-05-21T22:56:22.325Z,19.50
2018-05-21T22:58:49.817Z,19.60
2018-05-21T23:01:18.353Z,19.50
2018-05-21T23:03:45.841Z,19.50
2018-05-21T23:06:13.307Z,19.50
2018-05-21T23:08:41.541Z,19.60
2018-05-21T23:11:09.042Z,19.50
2018-05-21T23:13:37.277Z,19.60
2018-05-21T23:16:04.774Z,19.60
2018-05-21T23:18:33.012Z,19.70
2018-05-21T23:21:00.481Z,19.70
2018-05-21T23:23:27.965Z,19.70
2018-05-21T23:25:55.439Z,19.60
2018-05-21T23:28:22.929Z,19.40
2018-05-21T23:30:50.392Z,19.20
2018-05-21T23:33:17.861Z,19.00
2018-05-21T23:35:45.345Z,18.80
2018-05-21T23:38:12.818Z,18.40
2018-05-21T23:40:40.308Z,18.10
2018-05-21T23:43:07.773Z,17.80
2018-05-21T23:45:35.247Z,17.60
2018-05-21T23:48:03.521Z,17.10
2018-05-21T23:50:31.752Z,16.90
2018-05-21T23:52:59.249Z,16.90
2018-05-21T23:55:27.486Z,16.60
2018-05-21T23:57:54.962Z,16.60
